sensor_id;sensor_type;location;lat;lon;timestamp;P1;durP1;ratioP1;P2;durP2;ratioP2
13051;SDS011;6592;47.484;9.726;2022-10-16T00:01:27;2.17;;;1.02;;
13051;SDS011;6592;47.484;9.726;2022-10-16T00:03:57;1.80;;;0.85;;
13051;SDS011;6592;47.484;9.726;2022-10-16T00:06:27;1.50;;;0.80;;
13051;SDS011;6592;47.484;9.726;2022-10-16T00:08:55;2.95;;;1.00;;
13051;SDS011;6592;47.484;9.726;2022-10-16T00:11:25;1.77;;;0.82;;
13051;SDS011;6592;47.484;9.726;2022-10-16T00:13:56;1.50;;;0.80;;
13051;SDS011;6592;47.484;9.726;2022-10-16T00:18:54;2.45;;;0.90;;
13051;SDS011;6592;47.484;9.726;2022-10-16T00:21:23;3.15;;;0.88;;
13051;SDS011;6592;47.484;9.726;2022-10-16T00:23:54;1.83;;;1.00;;
13051;SDS011;6592;47.484;9.726;2022-10-16T00:26:26;2.35;;;1.00;;
13051;SDS011;6592;47.484;9.726;2022-10-16T00:28:56;1.98;;;1.08;;
13051;SDS011;6592;47.484;9.726;2022-10-16T00:31:25;2.03;;;1.00;;
13051;SDS011;6592;47.484;9.726;2022-10-16T00:33:54;1.88;;;0.93;;
13051;SDS011;6592;47.484;9.726;2022-10-16T00:36:23;3.05;;;1.08;;
13051;SDS011;6592;47.484;9.726;2022-10-16T00:38:53;4.05;;;1.00;;
13051;SDS011;6592;47.484;9.726;2022-10-16T00:41:24;2.22;;;0.77;;
13051;SDS011;6592;47.484;9.726;2022-10-16T00:43:53;2.92;;;1.02;;
13051;SDS011;6592;47.484;9.726;2022-10-16T00:46:24;2.05;;;0.90;;
13051;SDS011;6592;47.484;9.726;2022-10-16T00:48:55;1.83;;;0.90;;
13051;SDS011;6592;47.484;9.726;2022-10-16T00:51:28;2.30;;;0.98;;
13051;SDS011;6592;47.484;9.726;2022-10-16T00:54:00;1.48;;;0.75;;
13051;SDS011;6592;47.484;9.726;2022-10-16T00:59:01;3.05;;;1.00;;
13051;SDS011;6592;47.484;9.726;2022-10-16T01:01:36;1.80;;;1.00;;
13051;SDS011;6592;47.484;9.726;2022-10-16T01:04:04;3.63;;;1.20;;
13051;SDS011;6592;47.484;9.726;2022-10-16T01:06:34;2.20;;;1.00;;
13051;SDS011;6592;47.484;9.726;2022-10-16T01:09:13;1.88;;;0.98;;
13051;SDS011;6592;47.484;9.726;2022-10-16T01:11:49;2.05;;;1.00;;
13051;SDS011;6592;47.484;9.726;2022-10-16T01:14:27;2.00;;;1.10;;
13051;SDS011;6592;47.484;9.726;2022-10-16T01:17:01;2.35;;;0.98;;
13051;SDS011;6592;47.484;9.726;2022-10-16T01:19:41;2.28;;;0.95;;
13051;SDS011;6592;47.484;9.726;2022-10-16T01:22:21;2.70;;;0.80;;
13051;SDS011;6592;47.484;9.726;2022-10-16T01:24:53;1.80;;;0.93;;
13051;SDS011;6592;47.484;9.726;2022-10-16T01:27:29;1.67;;;0.70;;
13051;SDS011;6592;47.484;9.726;2022-10-16T01:30:02;1.50;;;0.90;;
13051;SDS011;6592;47.484;9.726;2022-10-16T01:32:37;4.95;;;1.10;;
13051;SDS011;6592;47.484;9.726;2022-10-16T01:35:09;1.90;;;0.88;;
13051;SDS011;6592;47.484;9.726;2022-10-16T01:37:43;1.80;;;0.80;;
13051;SDS011;6592;47.484;9.726;2022-10-16T01:40:17;1.67;;;0.60;;
13051;SDS011;6592;47.484;9.726;2022-10-16T01:42:59;1.08;;;0.60;;
13051;SDS011;6592;47.484;9.726;2022-10-16T01:45:32;1.52;;;0.60;;
13051;SDS011;6592;47.484;9.726;2022-10-16T01:48:02;6.30;;;0.73;;
13051;SDS011;6592;47.484;9.726;2022-10-16T01:50:37;1.23;;;0.52;;
13051;SDS011;6592;47.484;9.726;2022-10-16T01:53:08;0.93;;;0.45;;
13051;SDS011;6592;47.484;9.726;2022-10-16T01:55:41;1.95;;;0.63;;
13051;SDS011;6592;47.484;9.726;2022-10-16T01:58:14;2.25;;;0.70;;
13051;SDS011;6592;47.484;9.726;2022-10-16T02:00:43;1.55;;;0.68;;
13051;SDS011;6592;47.484;9.726;2022-10-16T02:03:16;2.05;;;0.60;;
13051;SDS011;6592;47.484;9.726;2022-10-16T02:08:16;1.30;;;0.68;;
13051;SDS011;6592;47.484;9.726;2022-10-16T02:10:45;3.53;;;0.75;;
13051;SDS011;6592;47.484;9.726;2022-10-16T02:13:15;2.13;;;0.85;;
13051;SDS011;6592;47.484;9.726;2022-10-16T02:15:48;1.65;;;0.80;;
13051;SDS011;6592;47.484;9.726;2022-10-16T02:18:16;1.58;;;0.77;;
13051;SDS011;6592;47.484;9.726;2022-10-16T02:20:50;1.65;;;0.90;;
13051;SDS011;6592;47.484;9.726;2022-10-16T02:23:24;2.03;;;0.70;;
13051;SDS011;6592;47.484;9.726;2022-10-16T02:26:00;2.35;;;0.90;;
13051;SDS011;6592;47.484;9.726;2022-10-16T02:28:35;1.92;;;0.80;;
13051;SDS011;6592;47.484;9.726;2022-10-16T02:31:08;1.90;;;0.82;;
13051;SDS011;6592;47.484;9.726;2022-10-16T02:33:39;2.67;;;1.00;;
13051;SDS011;6592;47.484;9.726;2022-10-16T02:36:09;2.95;;;1.10;;
13051;SDS011;6592;47.484;9.726;2022-10-16T02:38:41;1.55;;;0.70;;
13051;SDS011;6592;47.484;9.726;2022-10-16T02:41:10;1.17;;;0.68;;
13051;SDS011;6592;47.484;9.726;2022-10-16T02:43:40;1.08;;;0.52;;
13051;SDS011;6592;47.484;9.726;2022-10-16T02:46:09;1.23;;;0.63;;
13051;SDS011;6592;47.484;9.726;2022-10-16T02:48:37;1.30;;;0.68;;
13051;SDS011;6592;47.484;9.726;2022-10-16T02:51:05;3.60;;;0.80;;
13051;SDS011;6592;47.484;9.726;2022-10-16T02:53:34;1.63;;;0.60;;
13051;SDS011;6592;47.484;9.726;2022-10-16T02:56:02;1.88;;;0.70;;
13051;SDS011;6592;47.484;9.726;2022-10-16T02:58:30;2.53;;;0.75;;
13051;SDS011;6592;47.484;9.726;2022-10-16T03:01:00;2.13;;;0.82;;
13051;SDS011;6592;47.484;9.726;2022-10-16T03:03:28;1.45;;;0.60;;
13051;SDS011;6592;47.484;9.726;2022-10-16T03:05:56;4.03;;;0.80;;
13051;SDS011;6592;47.484;9.726;2022-10-16T03:08:25;4.45;;;0.70;;
13051;SDS011;6592;47.484;9.726;2022-10-16T03:10:53;1.42;;;0.88;;
13051;SDS011;6592;47.484;9.726;2022-10-16T03:13:21;1.77;;;0.50;;
13051;SDS011;6592;47.484;9.726;2022-10-16T03:15:49;0.82;;;0.40;;
13051;SDS011;6592;47.484;9.726;2022-10-16T03:18:19;1.42;;;0.43;;
13051;SDS011;6592;47.484;9.726;2022-10-16T03:20:47;1.75;;;0.60;;
13051;SDS011;6592;47.484;9.726;2022-10-16T03:23:15;1.38;;;0.57;;
13051;SDS011;6592;47.484;9.726;2022-10-16T03:25:52;1.33;;;0.47;;
13051;SDS011;6592;47.484;9.726;2022-10-16T03:28:21;1.05;;;0.35;;
13051;SDS011;6592;47.484;9.726;2022-10-16T03:30:50;0.98;;;0.60;;
13051;SDS011;6592;47.484;9.726;2022-10-16T03:33:22;1.20;;;0.50;;
13051;SDS011;6592;47.484;9.726;2022-10-16T03:35:51;1.42;;;0.60;;
13051;SDS011;6592;47.484;9.726;2022-10-16T03:38:21;1.63;;;0.47;;
13051;SDS011;6592;47.484;9.726;2022-10-16T03:40:49;0.93;;;0.50;;
13051;SDS011;6592;47.484;9.726;2022-10-16T03:43:18;1.15;;;0.50;;
13051;SDS011;6592;47.484;9.726;2022-10-16T03:45:46;1.92;;;0.52;;
13051;SDS011;6592;47.484;9.726;2022-10-16T03:48:14;1.45;;;0.50;;
13051;SDS011;6592;47.484;9.726;2022-10-16T03:50:44;2.17;;;0.50;;
13051;SDS011;6592;47.484;9.726;2022-10-16T03:53:14;1.45;;;0.60;;
13051;SDS011;6592;47.484;9.726;2022-10-16T03:55:42;2.45;;;0.70;;
13051;SDS011;6592;47.484;9.726;2022-10-16T03:58:11;4.82;;;0.80;;
13051;SDS011;6592;47.484;9.726;2022-10-16T04:00:40;1.45;;;0.50;;
13051;SDS011;6592;47.484;9.726;2022-10-16T04:03:08;1.40;;;0.55;;
13051;SDS011;6592;47.484;9.726;2022-10-16T04:05:37;3.15;;;0.63;;
13051;SDS011;6592;47.484;9.726;2022-10-16T04:08:07;1.42;;;0.47;;
13051;SDS011;6592;47.484;9.726;2022-10-16T04:10:37;1.35;;;0.60;;
13051;SDS011;6592;47.484;9.726;2022-10-16T04:13:06;1.30;;;0.60;;
13051;SDS011;6592;47.484;9.726;2022-10-16T04:15:34;1.80;;;0.70;;
13051;SDS011;6592;47.484;9.726;2022-10-16T04:18:03;1.48;;;0.70;;
13051;SDS011;6592;47.484;9.726;2022-10-16T04:20:32;2.33;;;0.80;;
13051;SDS011;6592;47.484;9.726;2022-10-16T04:23:01;1.35;;;0.60;;
13051;SDS011;6592;47.484;9.726;2022-10-16T04:25:32;2.55;;;0.50;;
13051;SDS011;6592;47.484;9.726;2022-10-16T04:28:00;1.17;;;0.50;;
13051;SDS011;6592;47.484;9.726;2022-10-16T04:30:29;0.90;;;0.50;;
13051;SDS011;6592;47.484;9.726;2022-10-16T04:32:57;1.33;;;0.50;;
13051;SDS011;6592;47.484;9.726;2022-10-16T04:35:31;4.78;;;0.88;;
13051;SDS011;6592;47.484;9.726;2022-10-16T04:37:59;1.55;;;0.70;;
13051;SDS011;6592;47.484;9.726;2022-10-16T04:40:27;1.13;;;0.57;;
13051;SDS011;6592;47.484;9.726;2022-10-16T04:43:00;2.92;;;0.50;;
13051;SDS011;6592;47.484;9.726;2022-10-16T04:45:28;2.30;;;0.80;;
13051;SDS011;6592;47.484;9.726;2022-10-16T04:47:56;2.35;;;0.60;;
13051;SDS011;6592;47.484;9.726;2022-10-16T04:50:25;1.25;;;0.60;;
13051;SDS011;6592;47.484;9.726;2022-10-16T04:52:53;1.00;;;0.45;;
13051;SDS011;6592;47.484;9.726;2022-10-16T04:55:21;1.58;;;0.50;;
13051;SDS011;6592;47.484;9.726;2022-10-16T04:57:50;1.80;;;0.43;;
13051;SDS011;6592;47.484;9.726;2022-10-16T05:00:20;0.65;;;0.40;;
13051;SDS011;6592;47.484;9.726;2022-10-16T05:02:49;0.90;;;0.40;;
13051;SDS011;6592;47.484;9.726;2022-10-16T05:05:18;1.02;;;0.57;;
13051;SDS011;6592;47.484;9.726;2022-10-16T05:07:46;1.63;;;0.50;;
13051;SDS011;6592;47.484;9.726;2022-10-16T05:10:16;1.13;;;0.60;;
13051;SDS011;6592;47.484;9.726;2022-10-16T05:12:46;3.80;;;0.68;;
13051;SDS011;6592;47.484;9.726;2022-10-16T05:15:14;1.50;;;0.47;;
13051;SDS011;6592;47.484;9.726;2022-10-16T05:17:44;0.90;;;0.40;;
13051;SDS011;6592;47.484;9.726;2022-10-16T05:20:13;0.98;;;0.50;;
13051;SDS011;6592;47.484;9.726;2022-10-16T05:22:41;1.90;;;0.50;;
13051;SDS011;6592;47.484;9.726;2022-10-16T05:25:10;1.45;;;0.60;;
13051;SDS011;6592;47.484;9.726;2022-10-16T05:27:38;2.13;;;0.50;;
13051;SDS011;6592;47.484;9.726;2022-10-16T05:30:07;0.93;;;0.45;;
13051;SDS011;6592;47.484;9.726;2022-10-16T05:32:37;0.73;;;0.40;;
13051;SDS011;6592;47.484;9.726;2022-10-16T05:35:08;1.42;;;0.50;;
13051;SDS011;6592;47.484;9.726;2022-10-16T05:37:38;1.88;;;0.40;;
13051;SDS011;6592;47.484;9.726;2022-10-16T05:40:06;0.98;;;0.38;;
13051;SDS011;6592;47.484;9.726;2022-10-16T05:42:35;1.40;;;0.60;;
13051;SDS011;6592;47.484;9.726;2022-10-16T05:45:04;3.65;;;0.60;;
13051;SDS011;6592;47.484;9.726;2022-10-16T05:47:34;4.57;;;1.48;;
13051;SDS011;6592;47.484;9.726;2022-10-16T05:50:03;1.48;;;0.60;;
13051;SDS011;6592;47.484;9.726;2022-10-16T05:52:33;1.42;;;0.50;;
13051;SDS011;6592;47.484;9.726;2022-10-16T05:55:02;1.52;;;0.70;;
13051;SDS011;6592;47.484;9.726;2022-10-16T05:57:31;1.98;;;0.60;;
13051;SDS011;6592;47.484;9.726;2022-10-16T05:59:59;2.03;;;0.80;;
13051;SDS011;6592;47.484;9.726;2022-10-16T06:02:27;2.42;;;0.75;;
13051;SDS011;6592;47.484;9.726;2022-10-16T06:04:55;1.67;;;0.80;;
13051;SDS011;6592;47.484;9.726;2022-10-16T06:07:24;1.50;;;0.90;;
13051;SDS011;6592;47.484;9.726;2022-10-16T06:09:54;2.05;;;0.80;;
13051;SDS011;6592;47.484;9.726;2022-10-16T06:12:22;2.20;;;0.88;;
13051;SDS011;6592;47.484;9.726;2022-10-16T06:14:50;3.95;;;0.70;;
13051;SDS011;6592;47.484;9.726;2022-10-16T06:17:19;1.95;;;1.00;;
13051;SDS011;6592;47.484;9.726;2022-10-16T06:19:48;1.52;;;0.80;;
13051;SDS011;6592;47.484;9.726;2022-10-16T06:22:17;2.10;;;0.90;;
13051;SDS011;6592;47.484;9.726;2022-10-16T06:24:45;1.65;;;0.82;;
13051;SDS011;6592;47.484;9.726;2022-10-16T06:27:15;2.28;;;0.90;;
13051;SDS011;6592;47.484;9.726;2022-10-16T06:29:43;1.88;;;0.60;;
13051;SDS011;6592;47.484;9.726;2022-10-16T06:32:12;1.08;;;0.50;;
13051;SDS011;6592;47.484;9.726;2022-10-16T06:34:40;0.95;;;0.40;;
13051;SDS011;6592;47.484;9.726;2022-10-16T06:37:09;1.48;;;0.50;;
13051;SDS011;6592;47.484;9.726;2022-10-16T06:39:37;2.65;;;0.47;;
13051;SDS011;6592;47.484;9.726;2022-10-16T06:42:06;1.83;;;0.73;;
13051;SDS011;6592;47.484;9.726;2022-10-16T06:44:35;1.45;;;0.70;;
13051;SDS011;6592;47.484;9.726;2022-10-16T06:47:04;1.55;;;0.65;;
13051;SDS011;6592;47.484;9.726;2022-10-16T06:49:33;1.25;;;0.47;;
13051;SDS011;6592;47.484;9.726;2022-10-16T06:52:01;1.52;;;0.52;;
13051;SDS011;6592;47.484;9.726;2022-10-16T06:54:31;1.10;;;0.32;;
13051;SDS011;6592;47.484;9.726;2022-10-16T06:57:07;1.38;;;0.50;;
13051;SDS011;6592;47.484;9.726;2022-10-16T06:59:37;1.85;;;0.60;;
13051;SDS011;6592;47.484;9.726;2022-10-16T07:02:08;1.00;;;0.43;;
13051;SDS011;6592;47.484;9.726;2022-10-16T07:04:37;1.00;;;0.45;;
13051;SDS011;6592;47.484;9.726;2022-10-16T07:07:05;3.00;;;0.60;;
13051;SDS011;6592;47.484;9.726;2022-10-16T07:09:34;2.65;;;0.57;;
13051;SDS011;6592;47.484;9.726;2022-10-16T07:12:03;2.17;;;0.82;;
13051;SDS011;6592;47.484;9.726;2022-10-16T07:14:31;3.58;;;0.77;;
13051;SDS011;6592;47.484;9.726;2022-10-16T07:17:01;1.75;;;0.90;;
13051;SDS011;6592;47.484;9.726;2022-10-16T07:19:30;1.77;;;0.70;;
13051;SDS011;6592;47.484;9.726;2022-10-16T07:21:59;1.52;;;0.63;;
13051;SDS011;6592;47.484;9.726;2022-10-16T07:24:29;2.00;;;0.80;;
13051;SDS011;6592;47.484;9.726;2022-10-16T07:26:57;1.58;;;0.80;;
13051;SDS011;6592;47.484;9.726;2022-10-16T07:29:25;1.70;;;0.80;;
13051;SDS011;6592;47.484;9.726;2022-10-16T07:31:54;1.85;;;0.85;;
13051;SDS011;6592;47.484;9.726;2022-10-16T07:34:23;1.60;;;0.70;;
13051;SDS011;6592;47.484;9.726;2022-10-16T07:36:53;2.95;;;0.90;;
13051;SDS011;6592;47.484;9.726;2022-10-16T07:39:21;2.38;;;0.75;;
13051;SDS011;6592;47.484;9.726;2022-10-16T07:41:49;2.13;;;0.98;;
13051;SDS011;6592;47.484;9.726;2022-10-16T07:44:17;1.35;;;0.70;;
13051;SDS011;6592;47.484;9.726;2022-10-16T07:46:46;3.03;;;0.70;;
13051;SDS011;6592;47.484;9.726;2022-10-16T07:49:14;1.67;;;0.60;;
13051;SDS011;6592;47.484;9.726;2022-10-16T07:51:44;0.90;;;0.50;;
13051;SDS011;6592;47.484;9.726;2022-10-16T07:54:12;1.92;;;0.80;;
13051;SDS011;6592;47.484;9.726;2022-10-16T07:56:40;3.20;;;0.75;;
13051;SDS011;6592;47.484;9.726;2022-10-16T07:59:09;4.05;;;0.77;;
13051;SDS011;6592;47.484;9.726;2022-10-16T08:01:37;1.20;;;0.70;;
13051;SDS011;6592;47.484;9.726;2022-10-16T08:04:06;1.15;;;0.50;;
13051;SDS011;6592;47.484;9.726;2022-10-16T08:06:36;1.75;;;0.80;;
13051;SDS011;6592;47.484;9.726;2022-10-16T08:09:07;1.98;;;0.85;;
13051;SDS011;6592;47.484;9.726;2022-10-16T08:11:36;1.40;;;0.80;;
13051;SDS011;6592;47.484;9.726;2022-10-16T08:14:04;1.55;;;0.80;;
13051;SDS011;6592;47.484;9.726;2022-10-16T08:16:32;1.83;;;0.68;;
13051;SDS011;6592;47.484;9.726;2022-10-16T08:19:00;4.35;;;0.70;;
13051;SDS011;6592;47.484;9.726;2022-10-16T08:21:28;1.08;;;0.52;;
13051;SDS011;6592;47.484;9.726;2022-10-16T08:23:57;1.88;;;0.60;;
13051;SDS011;6592;47.484;9.726;2022-10-16T08:26:27;2.50;;;0.75;;
13051;SDS011;6592;47.484;9.726;2022-10-16T08:28:56;1.83;;;0.60;;
13051;SDS011;6592;47.484;9.726;2022-10-16T08:31:24;2.72;;;0.90;;
13051;SDS011;6592;47.484;9.726;2022-10-16T08:33:53;1.33;;;0.70;;
13051;SDS011;6592;47.484;9.726;2022-10-16T08:36:21;2.55;;;0.75;;
13051;SDS011;6592;47.484;9.726;2022-10-16T08:38:50;1.48;;;0.70;;
13051;SDS011;6592;47.484;9.726;2022-10-16T08:41:23;2.17;;;0.70;;
13051;SDS011;6592;47.484;9.726;2022-10-16T08:44:32;2.05;;;0.80;;
13051;SDS011;6592;47.484;9.726;2022-10-16T08:47:13;2.58;;;1.00;;
13051;SDS011;6592;47.484;9.726;2022-10-16T08:49:50;2.58;;;0.90;;
13051;SDS011;6592;47.484;9.726;2022-10-16T08:52:22;2.55;;;1.00;;
13051;SDS011;6592;47.484;9.726;2022-10-16T08:54:53;1.55;;;0.80;;
13051;SDS011;6592;47.484;9.726;2022-10-16T08:57:24;1.98;;;0.70;;
13051;SDS011;6592;47.484;9.726;2022-10-16T08:59:55;1.52;;;0.63;;
13051;SDS011;6592;47.484;9.726;2022-10-16T09:02:30;1.38;;;0.60;;
13051;SDS011;6592;47.484;9.726;2022-10-16T09:05:02;1.63;;;0.60;;
13051;SDS011;6592;47.484;9.726;2022-10-16T09:07:54;2.58;;;0.80;;
13051;SDS011;6592;47.484;9.726;2022-10-16T09:10:39;1.27;;;0.57;;
13051;SDS011;6592;47.484;9.726;2022-10-16T09:13:17;1.70;;;0.68;;
13051;SDS011;6592;47.484;9.726;2022-10-16T09:15:55;1.42;;;0.70;;
13051;SDS011;6592;47.484;9.726;2022-10-16T09:18:32;2.75;;;0.80;;
13051;SDS011;6592;47.484;9.726;2022-10-16T09:21:09;1.05;;;0.60;;
13051;SDS011;6592;47.484;9.726;2022-10-16T09:23:43;2.40;;;0.60;;
13051;SDS011;6592;47.484;9.726;2022-10-16T09:26:12;2.17;;;0.63;;
13051;SDS011;6592;47.484;9.726;2022-10-16T09:31:14;1.42;;;0.68;;
13051;SDS011;6592;47.484;9.726;2022-10-16T09:33:48;1.67;;;0.52;;
13051;SDS011;6592;47.484;9.726;2022-10-16T09:36:21;1.45;;;0.60;;
13051;SDS011;6592;47.484;9.726;2022-10-16T09:39:01;1.65;;;0.75;;
13051;SDS011;6592;47.484;9.726;2022-10-16T09:41:33;1.33;;;0.65;;
13051;SDS011;6592;47.484;9.726;2022-10-16T09:44:03;2.38;;;0.60;;
13051;SDS011;6592;47.484;9.726;2022-10-16T09:46:42;1.45;;;0.57;;
13051;SDS011;6592;47.484;9.726;2022-10-16T09:49:19;0.98;;;0.60;;
13051;SDS011;6592;47.484;9.726;2022-10-16T09:51:49;1.30;;;0.60;;
13051;SDS011;6592;47.484;9.726;2022-10-16T09:54:20;1.00;;;0.52;;
13051;SDS011;6592;47.484;9.726;2022-10-16T09:56:49;1.30;;;0.60;;
13051;SDS011;6592;47.484;9.726;2022-10-16T09:59:21;1.10;;;0.50;;
13051;SDS011;6592;47.484;9.726;2022-10-16T10:01:54;1.60;;;0.70;;
13051;SDS011;6592;47.484;9.726;2022-10-16T10:04:25;1.63;;;0.68;;
13051;SDS011;6592;47.484;9.726;2022-10-16T10:06:55;2.20;;;0.80;;
13051;SDS011;6592;47.484;9.726;2022-10-16T10:09:24;1.10;;;0.63;;
13051;SDS011;6592;47.484;9.726;2022-10-16T10:11:55;2.80;;;0.80;;
13051;SDS011;6592;47.484;9.726;2022-10-16T10:14:25;1.30;;;0.70;;
13051;SDS011;6592;47.484;9.726;2022-10-16T10:19:49;1.40;;;0.70;;
13051;SDS011;6592;47.484;9.726;2022-10-16T10:22:26;2.60;;;0.70;;
13051;SDS011;6592;47.484;9.726;2022-10-16T10:25:07;1.50;;;0.80;;
13051;SDS011;6592;47.484;9.726;2022-10-16T10:30:50;1.65;;;0.73;;
13051;SDS011;6592;47.484;9.726;2022-10-16T10:33:28;1.83;;;0.80;;
13051;SDS011;6592;47.484;9.726;2022-10-16T10:36:05;1.30;;;0.80;;
13051;SDS011;6592;47.484;9.726;2022-10-16T10:38:45;2.05;;;0.90;;
13051;SDS011;6592;47.484;9.726;2022-10-16T10:41:25;1.65;;;1.00;;
13051;SDS011;6592;47.484;9.726;2022-10-16T10:44:11;1.30;;;0.70;;
13051;SDS011;6592;47.484;9.726;2022-10-16T10:46:50;1.30;;;0.73;;
13051;SDS011;6592;47.484;9.726;2022-10-16T10:49:37;1.90;;;0.70;;
13051;SDS011;6592;47.484;9.726;2022-10-16T10:54:59;1.10;;;0.55;;
13051;SDS011;6592;47.484;9.726;2022-10-16T10:57:35;1.30;;;0.70;;
13051;SDS011;6592;47.484;9.726;2022-10-16T11:00:13;1.10;;;0.70;;
13051;SDS011;6592;47.484;9.726;2022-10-16T11:02:48;2.53;;;1.20;;
13051;SDS011;6592;47.484;9.726;2022-10-16T11:05:28;1.98;;;1.20;;
13051;SDS011;6592;47.484;9.726;2022-10-16T11:08:03;1.73;;;1.23;;
13051;SDS011;6592;47.484;9.726;2022-10-16T11:10:40;2.58;;;1.30;;
13051;SDS011;6592;47.484;9.726;2022-10-16T11:13:17;2.60;;;1.23;;
13051;SDS011;6592;47.484;9.726;2022-10-16T11:20:57;2.15;;;1.20;;
13051;SDS011;6592;47.484;9.726;2022-10-16T11:23:33;2.15;;;1.23;;
13051;SDS011;6592;47.484;9.726;2022-10-16T11:26:10;2.35;;;1.20;;
13051;SDS011;6592;47.484;9.726;2022-10-16T11:28:45;1.98;;;1.30;;
13051;SDS011;6592;47.484;9.726;2022-10-16T11:31:17;1.73;;;1.30;;
13051;SDS011;6592;47.484;9.726;2022-10-16T11:33:54;1.83;;;1.20;;
13051;SDS011;6592;47.484;9.726;2022-10-16T11:36:33;4.07;;;1.30;;
13051;SDS011;6592;47.484;9.726;2022-10-16T11:39:09;2.05;;;1.42;;
13051;SDS011;6592;47.484;9.726;2022-10-16T11:41:47;2.65;;;1.23;;
13051;SDS011;6592;47.484;9.726;2022-10-16T11:44:20;2.20;;;1.15;;
13051;SDS011;6592;47.484;9.726;2022-10-16T11:47:01;2.80;;;1.10;;
13051;SDS011;6592;47.484;9.726;2022-10-16T11:49:59;1.90;;;1.20;;
13051;SDS011;6592;47.484;9.726;2022-10-16T11:52:36;2.17;;;1.30;;
13051;SDS011;6592;47.484;9.726;2022-10-16T11:55:13;1.70;;;1.20;;
13051;SDS011;6592;47.484;9.726;2022-10-16T11:57:44;4.65;;;1.48;;
13051;SDS011;6592;47.484;9.726;2022-10-16T12:00:19;1.70;;;1.05;;
13051;SDS011;6592;47.484;9.726;2022-10-16T12:02:53;2.50;;;1.40;;
13051;SDS011;6592;47.484;9.726;2022-10-16T12:05:28;1.60;;;1.17;;
13051;SDS011;6592;47.484;9.726;2022-10-16T12:08:10;1.73;;;1.27;;
13051;SDS011;6592;47.484;9.726;2022-10-16T12:10:41;2.00;;;1.23;;
13051;SDS011;6592;47.484;9.726;2022-10-16T12:13:30;2.40;;;1.30;;
13051;SDS011;6592;47.484;9.726;2022-10-16T12:16:06;2.22;;;1.17;;
13051;SDS011;6592;47.484;9.726;2022-10-16T12:18:50;1.75;;;1.20;;
13051;SDS011;6592;47.484;9.726;2022-10-16T12:21:37;2.20;;;1.30;;
13051;SDS011;6592;47.484;9.726;2022-10-16T12:24:07;2.40;;;1.20;;
13051;SDS011;6592;47.484;9.726;2022-10-16T12:26:54;2.20;;;1.30;;
13051;SDS011;6592;47.484;9.726;2022-10-16T12:29:32;2.28;;;1.48;;
13051;SDS011;6592;47.484;9.726;2022-10-16T12:32:03;1.88;;;1.30;;
13051;SDS011;6592;47.484;9.726;2022-10-16T12:34:36;3.10;;;1.55;;
13051;SDS011;6592;47.484;9.726;2022-10-16T12:37:10;2.30;;;1.42;;
13051;SDS011;6592;47.484;9.726;2022-10-16T12:39:43;2.05;;;1.30;;
13051;SDS011;6592;47.484;9.726;2022-10-16T12:44:59;3.00;;;1.50;;
13051;SDS011;6592;47.484;9.726;2022-10-16T12:47:36;2.63;;;1.40;;
13051;SDS011;6592;47.484;9.726;2022-10-16T12:50:27;2.05;;;1.20;;
13051;SDS011;6592;47.484;9.726;2022-10-16T12:52:58;1.88;;;1.20;;
13051;SDS011;6592;47.484;9.726;2022-10-16T12:55:31;1.98;;;1.30;;
13051;SDS011;6592;47.484;9.726;2022-10-16T12:58:14;2.00;;;1.40;;
13051;SDS011;6592;47.484;9.726;2022-10-16T13:01:01;1.95;;;1.05;;
13051;SDS011;6592;47.484;9.726;2022-10-16T13:03:43;2.58;;;1.20;;
13051;SDS011;6592;47.484;9.726;2022-10-16T13:06:33;2.60;;;1.40;;
13051;SDS011;6592;47.484;9.726;2022-10-16T13:09:13;1.73;;;1.30;;
13051;SDS011;6592;47.484;9.726;2022-10-16T13:15:08;3.27;;;1.33;;
13051;SDS011;6592;47.484;9.726;2022-10-16T13:17:53;1.95;;;1.15;;
13051;SDS011;6592;47.484;9.726;2022-10-16T13:20:31;2.20;;;1.10;;
13051;SDS011;6592;47.484;9.726;2022-10-16T13:23:06;2.25;;;1.10;;
13051;SDS011;6592;47.484;9.726;2022-10-16T13:25:50;2.60;;;1.05;;
13051;SDS011;6592;47.484;9.726;2022-10-16T13:28:31;1.90;;;1.00;;
13051;SDS011;6592;47.484;9.726;2022-10-16T13:31:01;2.13;;;1.10;;
13051;SDS011;6592;47.484;9.726;2022-10-16T13:33:31;1.90;;;1.10;;
13051;SDS011;6592;47.484;9.726;2022-10-16T13:36:01;1.73;;;1.00;;
13051;SDS011;6592;47.484;9.726;2022-10-16T13:38:31;1.98;;;1.00;;
13051;SDS011;6592;47.484;9.726;2022-10-16T13:41:01;2.80;;;1.13;;
13051;SDS011;6592;47.484;9.726;2022-10-16T13:43:33;1.67;;;1.00;;
13051;SDS011;6592;47.484;9.726;2022-10-16T13:46:06;1.67;;;1.08;;
13051;SDS011;6592;47.484;9.726;2022-10-16T13:48:40;2.33;;;1.00;;
13051;SDS011;6592;47.484;9.726;2022-10-16T13:51:12;1.80;;;1.00;;
13051;SDS011;6592;47.484;9.726;2022-10-16T13:53:42;1.88;;;1.10;;
13051;SDS011;6592;47.484;9.726;2022-10-16T13:56:12;1.30;;;1.00;;
13051;SDS011;6592;47.484;9.726;2022-10-16T13:58:44;3.45;;;1.20;;
13051;SDS011;6592;47.484;9.726;2022-10-16T14:01:15;1.50;;;1.05;;
13051;SDS011;6592;47.484;9.726;2022-10-16T14:03:46;1.70;;;1.10;;
13051;SDS011;6592;47.484;9.726;2022-10-16T14:06:16;2.47;;;1.10;;
13051;SDS011;6592;47.484;9.726;2022-10-16T14:08:48;2.03;;;0.98;;
13051;SDS011;6592;47.484;9.726;2022-10-16T14:11:23;1.90;;;1.02;;
13051;SDS011;6592;47.484;9.726;2022-10-16T14:13:53;1.95;;;1.40;;
13051;SDS011;6592;47.484;9.726;2022-10-16T14:16:22;2.20;;;1.05;;
13051;SDS011;6592;47.484;9.726;2022-10-16T14:18:55;1.80;;;1.10;;
13051;SDS011;6592;47.484;9.726;2022-10-16T14:21:26;1.83;;;1.17;;
13051;SDS011;6592;47.484;9.726;2022-10-16T14:23:55;1.52;;;1.13;;
13051;SDS011;6592;47.484;9.726;2022-10-16T14:26:24;1.98;;;1.30;;
13051;SDS011;6592;47.484;9.726;2022-10-16T14:29:12;2.22;;;1.48;;
13051;SDS011;6592;47.484;9.726;2022-10-16T14:31:42;2.05;;;1.48;;
13051;SDS011;6592;47.484;9.726;2022-10-16T14:34:23;4.10;;;1.35;;
13051;SDS011;6592;47.484;9.726;2022-10-16T14:36:54;2.13;;;1.40;;
13051;SDS011;6592;47.484;9.726;2022-10-16T14:39:23;2.28;;;1.38;;
13051;SDS011;6592;47.484;9.726;2022-10-16T14:41:55;2.40;;;1.50;;
13051;SDS011;6592;47.484;9.726;2022-10-16T14:44:28;2.83;;;1.75;;
13051;SDS011;6592;47.484;9.726;2022-10-16T14:47:06;3.13;;;1.67;;
13051;SDS011;6592;47.484;9.726;2022-10-16T14:49:37;3.10;;;1.70;;
13051;SDS011;6592;47.484;9.726;2022-10-16T14:52:08;2.88;;;1.60;;
13051;SDS011;6592;47.484;9.726;2022-10-16T14:54:38;2.80;;;1.80;;
13051;SDS011;6592;47.484;9.726;2022-10-16T14:57:13;3.40;;;1.60;;
13051;SDS011;6592;47.484;9.726;2022-10-16T14:59:46;4.07;;;1.83;;
13051;SDS011;6592;47.484;9.726;2022-10-16T15:02:19;3.45;;;2.05;;
13051;SDS011;6592;47.484;9.726;2022-10-16T15:04:53;2.97;;;1.90;;
13051;SDS011;6592;47.484;9.726;2022-10-16T15:07:21;2.60;;;1.58;;
13051;SDS011;6592;47.484;9.726;2022-10-16T15:09:50;3.08;;;1.48;;
13051;SDS011;6592;47.484;9.726;2022-10-16T15:12:19;2.67;;;1.83;;
13051;SDS011;6592;47.484;9.726;2022-10-16T15:14:48;4.78;;;1.75;;
13051;SDS011;6592;47.484;9.726;2022-10-16T15:17:17;2.50;;;1.87;;
13051;SDS011;6592;47.484;9.726;2022-10-16T15:22:15;3.65;;;2.20;;
13051;SDS011;6592;47.484;9.726;2022-10-16T15:24:43;2.70;;;1.98;;
13051;SDS011;6592;47.484;9.726;2022-10-16T15:27:12;3.88;;;1.95;;
13051;SDS011;6592;47.484;9.726;2022-10-16T15:29:41;5.47;;;2.42;;
13051;SDS011;6592;47.484;9.726;2022-10-16T15:32:11;2.97;;;2.00;;
13051;SDS011;6592;47.484;9.726;2022-10-16T15:34:39;3.05;;;1.85;;
13051;SDS011;6592;47.484;9.726;2022-10-16T15:37:08;3.55;;;1.75;;
13051;SDS011;6592;47.484;9.726;2022-10-16T15:39:38;2.60;;;1.63;;
13051;SDS011;6592;47.484;9.726;2022-10-16T15:42:06;3.15;;;1.70;;
13051;SDS011;6592;47.484;9.726;2022-10-16T15:44:35;3.22;;;1.60;;
13051;SDS011;6592;47.484;9.726;2022-10-16T15:47:03;2.15;;;1.52;;
13051;SDS011;6592;47.484;9.726;2022-10-16T15:49:33;5.38;;;1.50;;
13051;SDS011;6592;47.484;9.726;2022-10-16T15:52:01;2.72;;;1.65;;
13051;SDS011;6592;47.484;9.726;2022-10-16T15:54:30;4.07;;;2.30;;
13051;SDS011;6592;47.484;9.726;2022-10-16T15:56:59;4.20;;;2.00;;
13051;SDS011;6592;47.484;9.726;2022-10-16T15:59:28;2.85;;;1.85;;
13051;SDS011;6592;47.484;9.726;2022-10-16T16:01:56;2.97;;;1.95;;